Terminal Aerodrome Forecast
Issued by NWS

Home | Current Version | Previous Version | Text Only | Print | Product List | Glossary On
Versions: 1 2 3 4 5 6 7 8 9 10 11 12 13 14 15
580
FTUS43 KGRR 261740
TAFAZO
TAF
KAZO 261740Z 2618/2718 29012G22KT P6SM VCTS SCT025 BKN035CB
     FM270100 30008KT P6SM BKN040
     FM270700 28007KT P6SM SCT040=

USA.gov is the U.S. government's official web portal to all federal, state and local government web resources and services.